Startpagina
METAR-TAF:

METAR-TAF

Vliegvelden :

Nouakchott, Mauretanië

Internationale luchthaven van Nouakchott

breedte: 18-18-36N, lengte: 015-58-11W, hoogte: 3 m

Actueel weer

Dit bericht is 31 minuten geleden gemaakt, om 04:00 UTC
Wind 7 kt uit het noordnoordoosten
Temperatuur 13°C
Vochtigheid 47%
Druk 1016 hPa
Zicht: 7000 m

METAR: GQNO 140400Z 02007KT 7000 NSC 13/02 Q1016 NOSIG

Tijdstip: 04:31 (04:31 UTC)

Verwachting

Dit bericht is 5 uur en het 31 minuten geleden gemaakt, om 23:00 UTC
Verwachting geldig van 14 om 00 UTC tot 15 om 06 UTC
Wind 8 kt uit het noorden
Zicht: 6000 m
Tijdelijke
van 14 om 09 UTC tot 14 om 16 UTC
Zicht: 3000 m
Stuifzand

TAF: GQNO 132300Z 1400/1506 36008KT 6000 NSC TEMPO 1409/1416 3000 BLSA

Waarnemingen en weersverwachtingen van meer dan 4000 vliegvelden (METAR en TAF).

De beschikbare stations zijn de gele en rode punten op de kaart.

Ga met uw muis naar het station om de naam te zien.

Klik dan om waarnemingen en weersverwachtingen te zien.

kaart wijzigen: klik op de groene knoppen met een zwart kruis om in te zoomen, op de groene knop met een streepje om uit te zoomen of op de groene pijlen voor aangrenzende kaarten.


METAR-TAF: